createdAt,value
2018-04-29T00:00:21.629Z,86.70
2018-04-29T00:00:54.895Z,87.00
2018-04-29T00:01:28.182Z,86.90
2018-04-29T00:02:01.444Z,87.00
2018-04-29T00:02:34.703Z,87.00
2018-04-29T00:03:07.963Z,86.90
2018-04-29T00:03:41.228Z,86.70
2018-04-29T00:04:14.521Z,86.70
2018-04-29T00:04:47.802Z,86.70
2018-04-29T00:05:21.053Z,86.60
2018-04-29T00:05:54.333Z,86.70
2018-04-29T00:06:27.589Z,87.00
2018-04-29T00:07:00.855Z,87.10
2018-04-29T00:07:35.458Z,87.00
2018-04-29T00:08:08.776Z,87.00
2018-04-29T00:08:42.265Z,86.90
2018-04-29T00:09:15.541Z,86.90
2018-04-29T00:09:48.836Z,86.80
2018-04-29T00:10:22.113Z,86.70
2018-04-29T00:10:55.380Z,86.70
2018-04-29T00:11:28.660Z,86.90
2018-04-29T00:12:01.912Z,87.00
2018-04-29T00:12:35.957Z,87.10
2018-04-29T00:13:09.228Z,87.10
2018-04-29T00:13:42.512Z,87.00
2018-04-29T00:14:16.539Z,87.00
2018-04-29T00:14:49.805Z,87.00
2018-04-29T00:15:23.865Z,87.00
2018-04-29T00:15:57.130Z,87.00
2018-04-29T00:16:31.161Z,86.80
2018-04-29T00:17:04.432Z,86.80
2018-04-29T00:17:37.701Z,87.00
2018-04-29T00:18:10.947Z,87.10
2018-04-29T00:18:44.996Z,87.10
2018-04-29T00:19:19.041Z,87.10
2018-04-29T00:19:52.298Z,87.10
2018-04-29T00:20:26.338Z,87.10
2018-04-29T00:21:00.370Z,87.00
2018-04-29T00:21:33.660Z,87.80
2018-04-29T00:22:06.949Z,86.80
2018-04-29T00:22:40.288Z,86.80
2018-04-29T00:23:13.553Z,86.80
2018-04-29T00:23:46.809Z,87.00
2018-04-29T00:24:20.085Z,86.90
2018-04-29T00:24:53.373Z,87.10
2018-04-29T00:25:26.644Z,87.10
2018-04-29T00:25:59.935Z,87.10
2018-04-29T00:26:33.237Z,87.10
2018-04-29T00:27:07.261Z,87.20
2018-04-29T00:27:40.523Z,87.20
2018-04-29T00:28:13.797Z,87.10
2018-04-29T00:28:47.129Z,87.20
2018-04-29T00:29:20.401Z,86.90
2018-04-29T00:29:53.689Z,86.90
2018-04-29T00:30:26.949Z,86.30
2018-04-29T00:31:00.208Z,87.00
2018-04-29T00:31:33.469Z,87.00
2018-04-29T00:32:06.726Z,86.90
2018-04-29T00:32:39.993Z,86.90
2018-04-29T00:33:13.273Z,86.90
2018-04-29T00:33:46.531Z,87.00
2018-04-29T00:34:19.796Z,86.90
2018-04-29T00:34:53.084Z,86.90
2018-04-29T00:35:26.335Z,86.60
2018-04-29T00:36:00.390Z,87.20
2018-04-29T00:36:33.662Z,86.60
2018-04-29T00:37:06.914Z,86.50
2018-04-29T00:37:40.190Z,86.70
2018-04-29T00:38:14.204Z,86.50
2018-04-29T00:38:47.476Z,86.50
2018-04-29T00:39:20.739Z,86.50
2018-04-29T00:39:54.017Z,86.40
2018-04-29T00:40:27.271Z,86.40
2018-04-29T00:41:00.541Z,86.60
2018-04-29T00:41:33.857Z,86.70
2018-04-29T00:42:07.134Z,86.50
2018-04-29T00:42:40.412Z,86.50
2018-04-29T00:43:14.436Z,86.50
2018-04-29T00:43:47.707Z,86.60
2018-04-29T00:44:20.993Z,86.60
2018-04-29T00:44:54.274Z,86.30
2018-04-29T00:45:27.565Z,86.50
2018-04-29T00:46:00.828Z,86.50
2018-04-29T00:46:34.093Z,86.50
2018-04-29T00:47:08.121Z,86.50
2018-04-29T00:47:41.622Z,86.40
2018-04-29T00:48:14.910Z,86.50
2018-04-29T00:48:48.188Z,86.40
2018-04-29T00:49:22.372Z,86.40
2018-04-29T00:49:55.643Z,86.40
2018-04-29T00:50:28.911Z,86.20
2018-04-29T00:51:02.171Z,86.30
2018-04-29T00:51:48.204Z,86.40
2018-04-29T00:52:21.481Z,86.30
2018-04-29T00:52:54.950Z,86.40
2018-04-29T00:53:28.227Z,86.70
2018-04-29T00:54:01.485Z,86.80
2018-04-29T00:54:34.758Z,86.80
2018-04-29T00:55:08.813Z,86.90
2018-04-29T00:55:42.087Z,86.90
2018-04-29T00:56:15.353Z,86.80
2018-04-29T00:56:48.637Z,86.70
2018-04-29T00:57:21.902Z,86.90
2018-04-29T00:57:55.170Z,86.80
2018-04-29T00:58:28.437Z,86.90
2018-04-29T00:59:02.472Z,86.90
2018-04-29T00:59:35.728Z,86.90
2018-04-29T01:00:09.017Z,86.80
2018-04-29T01:00:42.277Z,86.60
2018-04-29T01:01:16.320Z,86.70
2018-04-29T01:01:49.581Z,86.70
2018-04-29T01:02:22.860Z,87.20
2018-04-29T01:02:56.124Z,86.70
2018-04-29T01:03:29.399Z,86.70
2018-04-29T01:04:02.687Z,86.50
2018-04-29T01:04:35.951Z,86.50
2018-04-29T01:05:09.996Z,86.70
2018-04-29T01:05:43.261Z,86.70
2018-04-29T01:06:16.527Z,86.90
2018-04-29T01:06:49.797Z,86.70
2018-04-29T01:07:23.829Z,86.90
2018-04-29T01:07:57.092Z,86.90
2018-04-29T01:08:30.373Z,86.80
2018-04-29T01:09:03.661Z,87.00
2018-04-29T01:09:37.740Z,87.00
2018-04-29T01:10:11.049Z,86.90
2018-04-29T01:10:44.325Z,86.90
2018-04-29T01:11:17.598Z,86.80
2018-04-29T01:11:50.843Z,86.80
2018-04-29T01:12:24.900Z,86.80
2018-04-29T01:12:58.172Z,86.80
2018-04-29T01:13:31.437Z,86.80
2018-04-29T01:14:04.725Z,86.70
2018-04-29T01:14:37.992Z,86.80
2018-04-29T01:15:11.267Z,86.80
2018-04-29T01:15:44.552Z,86.90
2018-04-29T01:16:17.799Z,87.00
2018-04-29T01:16:51.070Z,86.90
2018-04-29T01:17:24.340Z,87.70
2018-04-29T01:17:57.609Z,87.00
2018-04-29T01:18:30.872Z,86.90
2018-04-29T01:19:04.137Z,87.00
2018-04-29T01:19:37.396Z,86.70
2018-04-29T01:20:10.652Z,86.70
2018-04-29T01:20:43.944Z,86.80
2018-04-29T01:21:17.974Z,86.80
2018-04-29T01:21:51.237Z,86.80
2018-04-29T01:22:25.275Z,86.90
2018-04-29T01:22:58.569Z,86.90
2018-04-29T01:23:31.831Z,86.60
2018-04-29T01:24:05.128Z,86.70
2018-04-29T01:24:38.408Z,86.70
2018-04-29T01:25:11.688Z,86.60
2018-04-29T01:25:44.973Z,86.80
2018-04-29T01:26:18.249Z,86.90
2018-04-29T01:26:51.504Z,87.00
2018-04-29T01:27:24.765Z,87.00
2018-04-29T01:27:58.029Z,87.20
2018-04-29T01:28:31.288Z,86.90
2018-04-29T01:29:05.348Z,86.70
2018-04-29T01:29:38.619Z,86.70
2018-04-29T01:30:12.213Z,86.60
2018-04-29T01:30:45.506Z,86.60
2018-04-29T01:31:18.767Z,86.70
2018-04-29T01:31:52.018Z,86.60
2018-04-29T01:32:25.285Z,86.60
2018-04-29T01:32:58.551Z,86.50
2018-04-29T01:33:32.588Z,87.40
2018-04-29T01:34:05.845Z,86.60
2018-04-29T01:34:39.092Z,86.60
2018-04-29T01:35:12.360Z,86.60
2018-04-29T01:35:45.644Z,86.50
2018-04-29T01:36:18.917Z,86.50
2018-04-29T01:36:52.945Z,86.50
2018-04-29T01:37:26.213Z,86.40
2018-04-29T01:37:59.477Z,86.40
2018-04-29T01:38:32.746Z,86.20
2018-04-29T01:39:06.000Z,86.20
2018-04-29T01:39:39.270Z,86.10
2018-04-29T01:40:12.516Z,86.20
2018-04-29T01:40:45.804Z,86.00
2018-04-29T01:41:19.068Z,86.20
2018-04-29T01:41:52.342Z,86.10
2018-04-29T01:42:25.616Z,86.20
2018-04-29T01:42:58.877Z,86.00
2018-04-29T01:43:32.156Z,86.00
2018-04-29T01:44:05.412Z,86.00
2018-04-29T01:44:38.680Z,86.00
2018-04-29T01:45:11.944Z,85.60
2018-04-29T01:45:45.220Z,85.70
2018-04-29T01:46:18.508Z,85.50
2018-04-29T01:46:52.529Z,85.40
2018-04-29T01:47:25.793Z,85.40
2018-04-29T01:47:59.074Z,85.70
2018-04-29T01:48:33.124Z,85.60
2018-04-29T01:49:06.392Z,85.60
2018-04-29T01:49:39.656Z,85.50
2018-04-29T01:50:12.908Z,85.60
2018-04-29T01:50:46.731Z,85.50
2018-04-29T01:51:20.054Z,85.50
2018-04-29T01:51:53.314Z,85.50
2018-04-29T01:52:27.351Z,85.40
2018-04-29T01:53:00.613Z,85.30
2018-04-29T01:53:33.880Z,85.30
2018-04-29T01:54:07.141Z,85.20
2018-04-29T01:54:40.408Z,85.30
2018-04-29T01:55:13.680Z,85.20
2018-04-29T01:55:46.948Z,85.00
2018-04-29T01:56:20.220Z,85.00
2018-04-29T01:56:54.278Z,85.00
2018-04-29T01:57:27.532Z,85.00
2018-04-29T01:58:00.804Z,84.90
2018-04-29T01:58:34.060Z,84.90
2018-04-29T01:59:07.328Z,85.00
2018-04-29T01:59:41.361Z,85.40
2018-04-29T02:00:14.621Z,84.90
2018-04-29T02:00:47.907Z,84.90
2018-04-29T02:01:21.948Z,85.00
2018-04-29T02:01:55.214Z,85.00
2018-04-29T02:02:28.464Z,85.10
2018-04-29T02:03:01.728Z,85.20
2018-04-29T02:03:34.995Z,85.30
2018-04-29T02:04:08.265Z,85.20
2018-04-29T02:04:41.555Z,86.10
2018-04-29T02:05:14.803Z,85.10
2018-04-29T02:05:48.075Z,85.10
2018-04-29T02:06:21.396Z,85.10
2018-04-29T02:06:54.665Z,85.30
2018-04-29T02:07:27.937Z,85.10
2018-04-29T02:08:01.208Z,85.10
2018-04-29T02:08:35.257Z,85.10
2018-04-29T02:09:09.279Z,85.10
2018-04-29T02:09:42.549Z,85.00
2018-04-29T02:10:15.817Z,84.90
2018-04-29T02:10:49.851Z,84.70
2018-04-29T02:11:23.150Z,84.70
2018-04-29T02:11:56.417Z,84.70
2018-04-29T02:12:29.774Z,84.80
2018-04-29T02:13:02.968Z,85.00
2018-04-29T02:13:36.232Z,84.90
2018-04-29T02:14:09.508Z,84.80
2018-04-29T02:14:42.772Z,84.80
2018-04-29T02:15:16.027Z,85.00
2018-04-29T02:15:49.308Z,85.00
2018-04-29T02:16:22.584Z,84.90
2018-04-29T02:16:56.624Z,85.00
2018-04-29T02:17:29.899Z,85.00
2018-04-29T02:18:03.165Z,84.90
2018-04-29T02:18:37.196Z,85.00
2018-04-29T02:19:10.485Z,85.00
2018-04-29T02:19:43.735Z,84.90
2018-04-29T02:20:17.012Z,84.60
2018-04-29T02:20:51.060Z,84.60
2018-04-29T02:21:24.355Z,84.60
2018-04-29T02:21:57.645Z,84.90
2018-04-29T02:22:30.921Z,84.90
2018-04-29T02:23:04.194Z,85.00
2018-04-29T02:23:37.469Z,84.80
2018-04-29T02:24:10.738Z,84.80
2018-04-29T02:24:43.992Z,84.70
2018-04-29T02:25:17.248Z,85.00
2018-04-29T02:25:50.512Z,85.00
2018-04-29T02:26:23.771Z,85.10
2018-04-29T02:26:57.041Z,85.30
2018-04-29T02:27:31.081Z,85.10
2018-04-29T02:28:05.340Z,85.20
2018-04-29T02:28:38.637Z,85.20
2018-04-29T02:29:12.222Z,85.10
2018-04-29T02:29:45.469Z,85.10
2018-04-29T02:30:18.749Z,85.10
2018-04-29T02:30:52.027Z,85.20
2018-04-29T02:31:25.304Z,85.00
2018-04-29T02:31:58.572Z,85.30
2018-04-29T02:32:31.922Z,85.50
2018-04-29T02:33:05.372Z,85.40
2018-04-29T02:33:38.650Z,85.30
2018-04-29T02:34:11.912Z,85.30
2018-04-29T02:34:45.945Z,85.50
2018-04-29T02:35:19.228Z,85.40
2018-04-29T02:35:52.527Z,85.30
2018-04-29T02:36:25.792Z,85.20
2018-04-29T02:36:59.061Z,85.30
2018-04-29T02:37:32.317Z,85.30
2018-04-29T02:38:05.606Z,85.30
2018-04-29T02:38:38.873Z,85.20
2018-04-29T02:39:12.132Z,85.20
2018-04-29T02:39:45.417Z,85.20
2018-04-29T02:40:18.677Z,85.40
2018-04-29T02:40:52.700Z,85.50
2018-04-29T02:41:25.955Z,85.50
2018-04-29T02:41:59.249Z,85.60
2018-04-29T02:42:32.505Z,85.60
2018-04-29T02:43:06.552Z,85.50
2018-04-29T02:43:39.802Z,85.50
2018-04-29T02:44:13.826Z,85.60
2018-04-29T02:44:47.330Z,85.60
2018-04-29T02:45:20.592Z,85.50
2018-04-29T02:45:53.860Z,85.60
2018-04-29T02:46:27.121Z,85.60
2018-04-29T02:47:01.157Z,85.80
2018-04-29T02:47:34.422Z,85.80
2018-04-29T02:48:07.686Z,85.60
2018-04-29T02:48:40.952Z,85.60
2018-04-29T02:49:14.223Z,85.70
2018-04-29T02:49:48.265Z,85.80
2018-04-29T02:50:21.533Z,85.70
2018-04-29T02:50:54.788Z,85.90
2018-04-29T02:51:28.813Z,85.80
2018-04-29T02:52:02.082Z,85.70
2018-04-29T02:52:35.352Z,85.70
2018-04-29T02:53:09.721Z,85.70
2018-04-29T02:53:42.938Z,85.70
2018-04-29T02:54:16.202Z,85.60
2018-04-29T02:54:50.240Z,85.80
2018-04-29T02:55:23.516Z,85.80
2018-04-29T02:55:56.760Z,85.70
2018-04-29T02:56:30.787Z,85.70
2018-04-29T02:57:04.081Z,85.60
2018-04-29T02:57:37.345Z,85.60
2018-04-29T02:58:11.384Z,85.70
2018-04-29T02:58:44.680Z,85.60
2018-04-29T02:59:17.936Z,85.70
2018-04-29T02:59:51.192Z,85.60
2018-04-29T03:00:24.487Z,85.60
2018-04-29T03:00:58.525Z,85.70
2018-04-29T03:01:31.796Z,85.60
2018-04-29T03:02:05.081Z,85.70
2018-04-29T03:02:38.362Z,85.80
2018-04-29T03:03:11.616Z,85.80
2018-04-29T03:03:44.879Z,85.90
2018-04-29T03:04:18.137Z,85.80
2018-04-29T03:04:51.400Z,86.00
2018-04-29T03:05:25.433Z,86.10
2018-04-29T03:05:58.693Z,86.10
2018-04-29T03:06:31.984Z,86.20
2018-04-29T03:07:05.241Z,86.20
2018-04-29T03:07:38.523Z,86.30
2018-04-29T03:08:12.544Z,86.00
2018-04-29T03:08:45.813Z,86.00
2018-04-29T03:09:19.082Z,86.10
2018-04-29T03:09:53.108Z,86.20
2018-04-29T03:10:26.373Z,86.20
2018-04-29T03:10:59.638Z,86.20
2018-04-29T03:11:33.682Z,86.10
2018-04-29T03:12:06.944Z,86.10
2018-04-29T03:12:40.222Z,86.30
2018-04-29T03:13:13.494Z,86.30
2018-04-29T03:13:46.771Z,86.30
2018-04-29T03:14:20.034Z,86.50
2018-04-29T03:14:54.049Z,86.30
2018-04-29T03:15:27.335Z,86.20
2018-04-29T03:16:00.589Z,86.30
2018-04-29T03:16:33.860Z,86.20
2018-04-29T03:17:07.129Z,86.30
2018-04-29T03:17:40.397Z,86.10
2018-04-29T03:18:13.664Z,86.90
2018-04-29T03:18:46.932Z,86.20
2018-04-29T03:19:20.197Z,86.30
2018-04-29T03:19:53.456Z,86.70
2018-04-29T03:20:26.721Z,86.30
2018-04-29T03:21:00.751Z,86.30
2018-04-29T03:21:34.017Z,86.20
2018-04-29T03:22:07.270Z,86.10
2018-04-29T03:22:40.545Z,86.10
2018-04-29T03:23:13.816Z,86.30
2018-04-29T03:23:47.097Z,86.00
2018-04-29T03:24:20.384Z,86.10
2018-04-29T03:24:53.636Z,86.20
2018-04-29T03:25:26.923Z,86.80
2018-04-29T03:26:00.184Z,85.80
2018-04-29T03:26:33.441Z,86.00
2018-04-29T03:27:06.707Z,86.20
2018-04-29T03:27:40.740Z,86.00
2018-04-29T03:28:14.001Z,86.00
2018-04-29T03:28:47.260Z,86.20
2018-04-29T03:29:21.304Z,86.50
2018-04-29T03:29:54.797Z,86.50
2018-04-29T03:30:28.063Z,86.40
2018-04-29T03:31:01.329Z,86.30
2018-04-29T03:31:34.600Z,86.40
2018-04-29T03:32:07.860Z,86.40
2018-04-29T03:32:41.147Z,86.60
2018-04-29T03:33:15.184Z,86.30
2018-04-29T03:33:48.476Z,86.40
2018-04-29T03:34:21.738Z,86.50
2018-04-29T03:34:54.992Z,86.40
2018-04-29T03:35:28.257Z,86.20
2018-04-29T03:36:02.296Z,86.40
2018-04-29T03:36:35.566Z,86.10
2018-04-29T03:37:08.837Z,86.40
2018-04-29T03:37:42.107Z,86.50
2018-04-29T03:38:15.367Z,86.50
2018-04-29T03:38:49.392Z,87.30
2018-04-29T03:39:22.646Z,86.60
2018-04-29T03:39:55.904Z,86.70
2018-04-29T03:40:29.175Z,86.50
2018-04-29T03:41:02.448Z,86.50
2018-04-29T03:41:35.731Z,86.50
2018-04-29T03:42:08.988Z,86.50
2018-04-29T03:42:42.288Z,86.60
2018-04-29T03:43:15.555Z,86.70
2018-04-29T03:43:48.811Z,86.80
2018-04-29T03:44:22.080Z,86.60
2018-04-29T03:44:55.352Z,86.50
2018-04-29T03:45:29.383Z,86.60
2018-04-29T03:46:02.645Z,86.30
2018-04-29T03:46:35.914Z,86.40
2018-04-29T03:47:09.932Z,86.60
2018-04-29T03:47:43.212Z,86.60
2018-04-29T03:48:16.460Z,86.60
2018-04-29T03:48:50.502Z,86.50
2018-04-29T03:49:23.776Z,86.40
2018-04-29T03:49:57.041Z,86.50
2018-04-29T03:50:30.313Z,86.70
2018-04-29T03:51:03.608Z,86.70
2018-04-29T03:51:36.871Z,86.90
2018-04-29T03:52:10.143Z,86.80
2018-04-29T03:52:44.180Z,87.30
2018-04-29T03:53:17.468Z,86.80
2018-04-29T03:53:50.737Z,86.70
2018-04-29T03:54:24.009Z,86.70
2018-04-29T03:54:57.267Z,86.60
2018-04-29T03:55:31.631Z,86.80
2018-04-29T03:56:04.923Z,86.80
2018-04-29T03:56:38.132Z,86.90
2018-04-29T03:57:24.132Z,86.80
2018-04-29T03:58:09.165Z,86.80
2018-04-29T03:58:54.934Z,87.00
2018-04-29T03:59:40.167Z,87.00
2018-04-29T04:00:31.002Z,87.00
2018-04-29T04:01:16.015Z,87.00
2018-04-29T04:02:01.250Z,87.00
2018-04-29T04:02:46.234Z,87.00
2018-04-29T04:03:31.336Z,87.00
2018-04-29T04:04:04.601Z,87.00
2018-04-29T04:04:37.878Z,86.90
2018-04-29T04:05:11.910Z,87.00
2018-04-29T04:05:45.180Z,87.10
2018-04-29T04:06:18.441Z,87.10
2018-04-29T04:06:51.705Z,87.10
2018-04-29T04:07:24.966Z,87.20
2018-04-29T04:07:58.252Z,87.10
2018-04-29T04:08:31.526Z,87.10
2018-04-29T04:09:05.580Z,87.10
2018-04-29T04:09:38.927Z,87.30
2018-04-29T04:10:12.128Z,87.30
2018-04-29T04:10:45.393Z,87.30
2018-04-29T04:11:18.660Z,87.20
2018-04-29T04:11:51.924Z,87.30
2018-04-29T04:12:25.208Z,87.30
2018-04-29T04:12:58.464Z,87.10
2018-04-29T04:13:31.749Z,87.10
2018-04-29T04:14:05.788Z,87.40
2018-04-29T04:14:39.824Z,87.40
2018-04-29T04:15:13.084Z,87.40
2018-04-29T04:15:46.349Z,87.30
2018-04-29T04:16:20.491Z,87.30
2018-04-29T04:16:53.716Z,87.20
2018-04-29T04:17:27.748Z,87.40
2018-04-29T04:18:01.016Z,87.30
2018-04-29T04:18:34.292Z,87.60
2018-04-29T04:19:08.328Z,87.40
2018-04-29T04:19:41.593Z,87.40
2018-04-29T04:20:14.860Z,87.40
2018-04-29T04:20:48.132Z,87.60
2018-04-29T04:21:21.393Z,87.30
2018-04-29T04:21:54.661Z,87.40
2018-04-29T04:22:27.918Z,87.30
2018-04-29T04:23:01.180Z,87.20
2018-04-29T04:23:34.487Z,87.30
2018-04-29T04:24:07.965Z,87.40
2018-04-29T04:24:41.231Z,87.60
2018-04-29T04:25:14.497Z,87.50
2018-04-29T04:25:47.755Z,87.30
2018-04-29T04:26:21.032Z,87.20
2018-04-29T04:26:55.066Z,87.30
2018-04-29T04:27:28.326Z,87.30
2018-04-29T04:28:01.593Z,87.20
2018-04-29T04:28:34.889Z,87.10
2018-04-29T04:29:08.166Z,87.10
2018-04-29T04:29:41.429Z,87.10
2018-04-29T04:30:14.692Z,87.30
2018-04-29T04:30:48.725Z,87.40
2018-04-29T04:31:21.989Z,87.30
2018-04-29T04:31:55.241Z,87.20
2018-04-29T04:32:29.276Z,87.20
2018-04-29T04:33:02.530Z,87.20
2018-04-29T04:33:36.566Z,87.10
2018-04-29T04:34:09.908Z,87.10
2018-04-29T04:34:43.105Z,87.00
2018-04-29T04:35:16.361Z,87.00
2018-04-29T04:35:49.626Z,86.80
2018-04-29T04:36:22.889Z,87.10
2018-04-29T04:36:56.671Z,87.00
2018-04-29T04:37:29.935Z,87.00
2018-04-29T04:38:03.202Z,87.00
2018-04-29T04:38:36.471Z,86.80
2018-04-29T04:39:10.496Z,86.70
2018-04-29T04:39:43.760Z,86.70
2018-04-29T04:40:17.120Z,86.70
2018-04-29T04:40:50.303Z,86.70
2018-04-29T04:41:23.589Z,86.60
2018-04-29T04:41:57.619Z,86.60
2018-04-29T04:42:30.869Z,86.60
2018-04-29T04:43:04.142Z,86.50
2018-04-29T04:43:38.184Z,86.80
2018-04-29T04:44:11.440Z,86.70
2018-04-29T04:44:44.702Z,86.90
2018-04-29T04:45:18.725Z,86.90
2018-04-29T04:45:52.006Z,86.80
2018-04-29T04:46:25.286Z,86.80
2018-04-29T04:46:58.543Z,86.90
2018-04-29T04:47:31.807Z,86.80
2018-04-29T04:48:05.832Z,86.70
2018-04-29T04:48:39.106Z,86.60
2018-04-29T04:49:12.380Z,86.60
2018-04-29T04:49:45.653Z,86.50
2018-04-29T04:50:19.680Z,86.70
2018-04-29T04:50:52.937Z,86.70
2018-04-29T04:51:26.960Z,86.80
2018-04-29T04:52:00.215Z,86.80
2018-04-29T04:52:33.480Z,86.80
2018-04-29T04:53:07.513Z,86.70
2018-04-29T04:53:41.582Z,86.70
2018-04-29T04:54:14.828Z,86.70
2018-04-29T04:54:48.869Z,86.70
2018-04-29T04:55:22.892Z,86.80
2018-04-29T04:55:56.188Z,86.80
2018-04-29T04:56:29.452Z,86.70
2018-04-29T04:57:02.745Z,87.00
2018-04-29T04:57:36.537Z,86.90
2018-04-29T04:58:09.881Z,87.60
2018-04-29T04:58:43.122Z,88.90
2018-04-29T04:59:16.402Z,87.40
2018-04-29T04:59:49.672Z,87.50
2018-04-29T05:00:23.715Z,88.80
2018-04-29T05:00:57.752Z,88.60
2018-04-29T05:01:31.035Z,88.60
2018-04-29T05:02:04.305Z,87.40
2018-04-29T05:02:37.579Z,87.40
2018-04-29T05:03:10.850Z,87.30
2018-04-29T05:03:44.124Z,87.80
2018-04-29T05:04:17.392Z,87.40
2018-04-29T05:04:51.421Z,87.70
2018-04-29T05:05:24.694Z,87.70
2018-04-29T05:05:57.959Z,88.00
2018-04-29T05:06:31.980Z,88.30
2018-04-29T05:07:05.248Z,88.20
2018-04-29T05:07:38.506Z,88.20
2018-04-29T05:08:12.540Z,88.30
2018-04-29T05:08:45.822Z,88.30
2018-04-29T05:09:19.091Z,88.20
2018-04-29T05:09:52.354Z,87.90
2018-04-29T05:10:25.600Z,87.90
2018-04-29T05:10:58.875Z,87.90
2018-04-29T05:11:32.203Z,87.80
2018-04-29T05:12:05.468Z,87.40
2018-04-29T05:12:38.732Z,87.80
2018-04-29T05:13:12.773Z,88.60
2018-04-29T05:13:46.156Z,88.60
2018-04-29T05:14:19.348Z,87.50
2018-04-29T05:14:52.617Z,87.20
2018-04-29T05:15:25.944Z,87.00
2018-04-29T05:15:59.162Z,87.00
2018-04-29T05:16:32.438Z,86.80
2018-04-29T05:17:05.704Z,86.50
2018-04-29T05:17:39.753Z,88.70
2018-04-29T05:18:13.005Z,88.60
2018-04-29T05:18:46.345Z,87.60
2018-04-29T05:19:19.620Z,87.30
2018-04-29T05:19:52.889Z,87.10
2018-04-29T05:20:26.154Z,87.10
2018-04-29T05:20:59.420Z,87.00
2018-04-29T05:21:33.024Z,86.80
2018-04-29T05:22:07.113Z,87.70
2018-04-29T05:22:40.315Z,87.70
2018-04-29T05:23:13.572Z,89.00
2018-04-29T05:23:46.828Z,88.20
2018-04-29T05:24:20.129Z,87.90
2018-04-29T05:24:53.393Z,87.00
2018-04-29T05:25:26.647Z,86.70
2018-04-29T05:25:59.909Z,86.80
2018-04-29T05:26:33.173Z,88.20
2018-04-29T05:27:06.431Z,87.00
2018-04-29T05:27:39.795Z,87.30
2018-04-29T05:28:12.973Z,86.70
2018-04-29T05:28:46.245Z,86.40
2018-04-29T05:29:19.515Z,87.80
2018-04-29T05:29:52.789Z,86.80
2018-04-29T05:30:26.836Z,86.10
2018-04-29T05:31:00.125Z,86.10
2018-04-29T05:31:33.365Z,85.80
2018-04-29T05:32:06.633Z,85.70
2018-04-29T05:32:39.895Z,85.70
2018-04-29T05:33:13.923Z,85.40
2018-04-29T05:33:47.204Z,85.50
2018-04-29T05:34:20.468Z,85.50
2018-04-29T05:34:53.729Z,85.50
2018-04-29T05:35:27.079Z,85.50
2018-04-29T05:36:00.268Z,88.40
2018-04-29T05:36:33.535Z,88.40
2018-04-29T05:37:06.801Z,86.90
2018-04-29T05:37:40.845Z,86.60
2018-04-29T05:38:14.116Z,86.60
2018-04-29T05:38:47.385Z,86.40
2018-04-29T05:39:21.790Z,86.70
2018-04-29T05:39:55.072Z,87.80
2018-04-29T05:40:28.352Z,86.90
2018-04-29T05:41:01.694Z,86.80
2018-04-29T05:41:34.884Z,86.80
2018-04-29T05:42:08.166Z,87.30
2018-04-29T05:42:41.437Z,87.50
2018-04-29T05:43:14.700Z,87.40
2018-04-29T05:43:47.980Z,87.30
2018-04-29T05:44:21.249Z,87.30
2018-04-29T05:44:54.513Z,87.20
2018-04-29T05:45:28.544Z,87.30
2018-04-29T05:46:02.570Z,87.60
2018-04-29T05:46:35.846Z,87.60
2018-04-29T05:47:09.125Z,87.70
2018-04-29T05:47:42.397Z,88.30
2018-04-29T05:48:15.664Z,88.10
2018-04-29T05:48:48.945Z,87.50
2018-04-29T05:49:22.232Z,87.70
2018-04-29T05:49:55.589Z,87.60
2018-04-29T05:50:28.813Z,88.10
2018-04-29T05:51:02.097Z,89.50
2018-04-29T05:51:35.361Z,88.10
2018-04-29T05:52:08.622Z,87.80
2018-04-29T05:52:41.892Z,88.00
2018-04-29T05:53:15.921Z,90.70
2018-04-29T05:53:49.189Z,90.70
2018-04-29T05:54:22.464Z,90.10
2018-04-29T05:54:55.758Z,89.50
2018-04-29T05:55:29.009Z,90.40
2018-04-29T05:56:02.279Z,89.20
2018-04-29T05:56:36.296Z,88.00
2018-04-29T05:57:09.562Z,88.00
2018-04-29T05:57:42.840Z,87.60
2018-04-29T05:58:16.867Z,90.00
2018-04-29T05:58:50.495Z,90.10
2018-04-29T05:59:23.757Z,89.70
2018-04-29T05:59:57.030Z,88.60
2018-04-29T06:00:30.423Z,90.00
2018-04-29T06:01:03.676Z,89.20
2018-04-29T06:01:36.936Z,89.10
2018-04-29T06:02:10.196Z,88.30
2018-04-29T06:02:44.229Z,89.70
2018-04-29T06:03:17.480Z,89.20
2018-04-29T06:03:51.535Z,89.10
2018-04-29T06:04:25.591Z,88.30
2018-04-29T06:04:58.906Z,88.40
2018-04-29T06:05:32.165Z,88.10
2018-04-29T06:06:05.440Z,90.10
2018-04-29T06:06:38.769Z,90.20
2018-04-29T06:07:11.981Z,88.90
2018-04-29T06:07:45.257Z,90.40
2018-04-29T06:08:19.285Z,90.00
2018-04-29T06:08:52.558Z,90.00
2018-04-29T06:09:25.821Z,89.30
2018-04-29T06:09:59.870Z,90.40
2018-04-29T06:10:33.160Z,90.40
2018-04-29T06:11:06.429Z,90.40
2018-04-29T06:11:39.688Z,90.70
2018-04-29T06:12:12.950Z,90.70
2018-04-29T06:12:46.215Z,90.10
2018-04-29T06:13:20.281Z,88.90
2018-04-29T06:13:53.553Z,88.90
2018-04-29T06:14:26.835Z,88.90
2018-04-29T06:15:00.121Z,90.20
2018-04-29T06:15:33.400Z,89.20
2018-04-29T06:16:06.652Z,89.50
2018-04-29T06:16:39.921Z,90.20
2018-04-29T06:17:13.185Z,89.90
2018-04-29T06:17:46.456Z,90.70
2018-04-29T06:18:19.717Z,91.80
2018-04-29T06:18:52.980Z,91.40
2018-04-29T06:19:26.236Z,90.40
2018-04-29T06:19:59.511Z,90.00
2018-04-29T06:20:32.797Z,90.20
2018-04-29T06:21:06.537Z,91.20
2018-04-29T06:21:39.809Z,90.40
2018-04-29T06:22:13.086Z,90.00
2018-04-29T06:22:46.342Z,89.40
2018-04-29T06:23:19.624Z,88.30
2018-04-29T06:23:52.881Z,87.90
2018-04-29T06:24:26.142Z,87.60
2018-04-29T06:24:59.424Z,87.30
2018-04-29T06:25:32.694Z,87.30
2018-04-29T06:26:06.071Z,87.10
2018-04-29T06:26:39.268Z,87.00
2018-04-29T06:27:12.543Z,86.90
2018-04-29T06:27:45.825Z,87.40
2018-04-29T06:28:19.092Z,90.30
2018-04-29T06:28:53.141Z,87.70
2018-04-29T06:29:27.156Z,89.60
2018-04-29T06:30:01.178Z,89.70
2018-04-29T06:30:35.240Z,88.50
2018-04-29T06:31:08.525Z,88.40
2018-04-29T06:31:41.808Z,87.40
2018-04-29T06:32:15.081Z,90.10
2018-04-29T06:32:48.344Z,90.30
2018-04-29T06:33:21.610Z,88.60
2018-04-29T06:33:54.872Z,87.90
2018-04-29T06:34:28.140Z,87.10
2018-04-29T06:35:01.409Z,86.80
2018-04-29T06:35:35.472Z,88.30
2018-04-29T06:36:08.741Z,88.20
2018-04-29T06:36:42.009Z,87.10
2018-04-29T06:37:15.277Z,86.80
2018-04-29T06:37:48.528Z,87.50
2018-04-29T06:38:22.564Z,87.50
2018-04-29T06:38:55.891Z,87.50
2018-04-29T06:39:29.104Z,90.20
2018-04-29T06:40:02.366Z,91.00
2018-04-29T06:40:35.636Z,91.80
2018-04-29T06:41:09.671Z,93.40
2018-04-29T06:41:42.929Z,93.50
2018-04-29T06:42:16.967Z,93.90
2018-04-29T06:42:50.257Z,93.80
2018-04-29T06:43:23.528Z,94.30
2018-04-29T06:43:56.783Z,93.30
2018-04-29T06:44:30.076Z,93.70
2018-04-29T06:45:03.332Z,93.10
2018-04-29T06:45:36.642Z,93.90
2018-04-29T06:46:09.912Z,93.00
2018-04-29T06:46:43.176Z,93.00
2018-04-29T06:47:16.440Z,92.00
2018-04-29T06:47:50.473Z,92.30
2018-04-29T06:48:23.739Z,92.20
2018-04-29T06:48:57.009Z,92.40
2018-04-29T06:49:31.047Z,94.40
2018-04-29T06:50:04.322Z,94.50
2018-04-29T06:50:37.616Z,94.40
2018-04-29T06:51:10.889Z,93.70
2018-04-29T06:51:44.156Z,94.60
2018-04-29T06:52:17.636Z,94.50
2018-04-29T06:52:50.917Z,92.80
2018-04-29T06:53:24.219Z,92.10
2018-04-29T06:53:57.439Z,92.10
2018-04-29T06:54:31.478Z,91.50
2018-04-29T06:55:04.764Z,91.50
2018-04-29T06:55:38.041Z,90.80
2018-04-29T06:56:11.324Z,90.60
2018-04-29T06:56:44.578Z,91.10
2018-04-29T06:57:18.602Z,92.80
2018-04-29T06:57:52.645Z,91.80
2018-04-29T06:58:25.912Z,91.90
2018-04-29T06:58:59.181Z,90.50
2018-04-29T06:59:32.464Z,90.20
2018-04-29T07:00:05.736Z,90.20
2018-04-29T07:00:39.034Z,90.90
2018-04-29T07:01:12.294Z,92.90
2018-04-29T07:01:45.577Z,93.50
2018-04-29T07:02:19.616Z,93.70
2018-04-29T07:02:53.659Z,94.10
2018-04-29T07:03:27.166Z,94.10
2018-04-29T07:04:01.457Z,93.80
2018-04-29T07:04:34.720Z,93.60
2018-04-29T07:05:08.013Z,93.30
2018-04-29T07:05:41.290Z,91.80
2018-04-29T07:06:14.561Z,91.40
2018-04-29T07:06:47.817Z,92.20
2018-04-29T07:07:21.090Z,93.40
2018-04-29T07:07:55.120Z,92.90
2018-04-29T07:08:28.377Z,92.90
2018-04-29T07:09:01.657Z,92.70
2018-04-29T07:09:34.913Z,92.10
2018-04-29T07:10:08.949Z,92.30
2018-04-29T07:10:42.257Z,92.30
2018-04-29T07:11:15.530Z,92.60
2018-04-29T07:11:49.237Z,92.40
2018-04-29T07:12:22.495Z,92.60